sensor_id;sensor_type;location;lat;lon;timestamp;pressure;altitude;pressure_sealevel;temperature;humidity
19096;BME280;9680;52.520;13.332;2022-09-09T00:01:17;100761.22;;;15.78;100.00
19096;BME280;9680;52.520;13.332;2022-09-09T00:03:57;100760.47;;;15.76;100.00
19096;BME280;9680;52.520;13.332;2022-09-09T00:06:37;100757.97;;;15.75;100.00
19096;BME280;9680;52.520;13.332;2022-09-09T00:09:19;100763.22;;;15.75;100.00
19096;BME280;9680;52.520;13.332;2022-09-09T00:11:52;100759.09;;;15.70;100.00
19096;BME280;9680;52.520;13.332;2022-09-09T00:14:34;100756.53;;;15.69;100.00
19096;BME280;9680;52.520;13.332;2022-09-09T00:17:14;100757.56;;;15.66;100.00
19096;BME280;9680;52.520;13.332;2022-09-09T00:19:55;100758.50;;;15.65;100.00
19096;BME280;9680;52.520;13.332;2022-09-09T00:22:28;100755.03;;;15.65;100.00
19096;BME280;9680;52.520;13.332;2022-09-09T00:25:11;100752.41;;;15.65;100.00
19096;BME280;9680;52.520;13.332;2022-09-09T00:27:47;100748.09;;;15.64;100.00
19096;BME280;9680;52.520;13.332;2022-09-09T00:30:19;100752.50;;;15.63;100.00
19096;BME280;9680;52.520;13.332;2022-09-09T00:33:15;100748.19;;;15.62;100.00
19096;BME280;9680;52.520;13.332;2022-09-09T00:36:00;100749.13;;;15.61;100.00
19096;BME280;9680;52.520;13.332;2022-09-09T00:41:10;100743.88;;;15.61;100.00
19096;BME280;9680;52.520;13.332;2022-09-09T00:43:39;100742.19;;;15.60;100.00
19096;BME280;9680;52.520;13.332;2022-09-09T00:57:31;100750.56;;;15.51;100.00
19096;BME280;9680;52.520;13.332;2022-09-09T01:05:39;100748.88;;;15.50;100.00
19096;BME280;9680;52.520;13.332;2022-09-09T01:08:55;100749.06;;;15.47;100.00
19096;BME280;9680;52.520;13.332;2022-09-09T01:11:22;100756.19;;;15.44;100.00
19096;BME280;9680;52.520;13.332;2022-09-09T01:13:55;100764.06;;;15.44;100.00
19096;BME280;9680;52.520;13.332;2022-09-09T01:16:28;100760.59;;;15.44;100.00
19096;BME280;9680;52.520;13.332;2022-09-09T01:18:56;100760.59;;;15.44;100.00
19096;BME280;9680;52.520;13.332;2022-09-09T01:24:25;100756.38;;;15.41;100.00
19096;BME280;9680;52.520;13.332;2022-09-09T01:27:05;100759.94;;;15.40;100.00
19096;BME280;9680;52.520;13.332;2022-09-09T01:29:32;100763.47;;;15.39;100.00
19096;BME280;9680;52.520;13.332;2022-09-09T01:32:00;100753.16;;;15.36;100.00
19096;BME280;9680;52.520;13.332;2022-09-09T01:34:38;100758.59;;;15.33;100.00
19096;BME280;9680;52.520;13.332;2022-09-09T01:37:08;100752.59;;;15.31;100.00
19096;BME280;9680;52.520;13.332;2022-09-09T01:39:39;100744.81;;;15.29;100.00
19096;BME280;9680;52.520;13.332;2022-09-09T01:42:12;100757.09;;;15.29;100.00
19096;BME280;9680;52.520;13.332;2022-09-09T01:44:39;100751.94;;;15.27;100.00
19096;BME280;9680;52.520;13.332;2022-09-09T01:47:06;100756.44;;;15.25;100.00
19096;BME280;9680;52.520;13.332;2022-09-09T01:49:32;100758.28;;;15.23;100.00
19096;BME280;9680;52.520;13.332;2022-09-09T01:52:03;100753.13;;;15.22;100.00
19096;BME280;9680;52.520;13.332;2022-09-09T01:54:33;100754.06;;;15.21;100.00
19096;BME280;9680;52.520;13.332;2022-09-09T02:00:10;100756.09;;;15.16;100.00
19096;BME280;9680;52.520;13.332;2022-09-09T02:03:00;100749.16;;;15.14;100.00
19096;BME280;9680;52.520;13.332;2022-09-09T02:05:49;100744.84;;;15.13;100.00
19096;BME280;9680;52.520;13.332;2022-09-09T02:08:29;100749.25;;;15.13;100.00
19096;BME280;9680;52.520;13.332;2022-09-09T02:11:13;100761.53;;;15.12;100.00
19096;BME280;9680;52.520;13.332;2022-09-09T02:13:46;100758.97;;;15.11;100.00
19096;BME280;9680;52.520;13.332;2022-09-09T02:16:24;100759.91;;;15.10;100.00
19096;BME280;9680;52.520;13.332;2022-09-09T02:19:02;100768.63;;;15.10;100.00
19096;BME280;9680;52.520;13.332;2022-09-09T02:21:43;100767.78;;;15.10;100.00
19096;BME280;9680;52.520;13.332;2022-09-09T02:24:12;100762.53;;;15.10;100.00
19096;BME280;9680;52.520;13.332;2022-09-09T02:26:49;100768.72;;;15.09;100.00
19096;BME280;9680;52.520;13.332;2022-09-09T02:29:25;100760.94;;;15.07;100.00
19096;BME280;9680;52.520;13.332;2022-09-09T02:31:53;100762.63;;;15.08;100.00
19096;BME280;9680;52.520;13.332;2022-09-09T02:34:27;100759.16;;;15.08;100.00
19096;BME280;9680;52.520;13.332;2022-09-09T02:36:54;100759.16;;;15.08;100.00
19096;BME280;9680;52.520;13.332;2022-09-09T02:39:22;100756.53;;;15.08;100.00
19096;BME280;9680;52.520;13.332;2022-09-09T02:41:49;100754.06;;;15.05;100.00
19096;BME280;9680;52.520;13.332;2022-09-09T02:44:17;100755.88;;;15.04;100.00
19096;BME280;9680;52.520;13.332;2022-09-09T02:49:19;100754.34;;;15.00;100.00
19096;BME280;9680;52.520;13.332;2022-09-09T02:52:07;100757.81;;;15.00;100.00
19096;BME280;9680;52.520;13.332;2022-09-09T02:54:37;100766.59;;;14.99;100.00
19096;BME280;9680;52.520;13.332;2022-09-09T02:57:19;100756.22;;;14.98;100.00
19096;BME280;9680;52.520;13.332;2022-09-09T02:59:49;100755.34;;;14.97;100.00
19096;BME280;9680;52.520;13.332;2022-09-09T03:02:15;100750.13;;;14.97;100.00
19096;BME280;9680;52.520;13.332;2022-09-09T03:04:44;100748.41;;;14.96;100.00
19096;BME280;9680;52.520;13.332;2022-09-09T03:07:16;100763.34;;;14.96;100.00
19096;BME280;9680;52.520;13.332;2022-09-09T03:09:44;100766.88;;;14.95;100.00
19096;BME280;9680;52.520;13.332;2022-09-09T03:12:10;100772.97;;;14.95;99.98
19096;BME280;9680;52.520;13.332;2022-09-09T03:14:38;100776.44;;;14.96;99.78
19096;BME280;9680;52.520;13.332;2022-09-09T03:17:04;100772.03;;;14.96;100.00
19096;BME280;9680;52.520;13.332;2022-09-09T03:19:35;100774.81;;;14.93;100.00
19096;BME280;9680;52.520;13.332;2022-09-09T03:22:02;100775.75;;;14.92;99.72
19096;BME280;9680;52.520;13.332;2022-09-09T03:24:30;100782.78;;;14.92;99.79
19096;BME280;9680;52.520;13.332;2022-09-09T03:26:55;100787.25;;;14.90;99.81
19096;BME280;9680;52.520;13.332;2022-09-09T03:29:21;100795.13;;;14.90;99.93
19096;BME280;9680;52.520;13.332;2022-09-09T03:31:47;100783.88;;;14.88;99.67
19096;BME280;9680;52.520;13.332;2022-09-09T03:34:13;100782.94;;;14.89;99.69
19096;BME280;9680;52.520;13.332;2022-09-09T03:36:39;100783.88;;;14.88;99.36
19096;BME280;9680;52.520;13.332;2022-09-09T03:39:06;100789.09;;;14.88;99.14
19096;BME280;9680;52.520;13.332;2022-09-09T03:41:32;100786.59;;;14.86;99.08
19096;BME280;9680;52.520;13.332;2022-09-09T03:43:59;100786.66;;;14.84;99.40
19096;BME280;9680;52.520;13.332;2022-09-09T03:46:28;100792.00;;;14.83;99.04
19096;BME280;9680;52.520;13.332;2022-09-09T03:48:54;100793.00;;;14.80;99.08
19096;BME280;9680;52.520;13.332;2022-09-09T03:51:19;100792.06;;;14.81;98.94
19096;BME280;9680;52.520;13.332;2022-09-09T03:53:47;100791.25;;;14.81;99.05
19096;BME280;9680;52.520;13.332;2022-09-09T03:56:14;100800.03;;;14.80;98.77
19096;BME280;9680;52.520;13.332;2022-09-09T03:58:39;100793.09;;;14.79;98.72
19096;BME280;9680;52.520;13.332;2022-09-09T04:01:12;100797.50;;;14.78;98.84
19096;BME280;9680;52.520;13.332;2022-09-09T04:03:43;100795.78;;;14.77;98.63
19096;BME280;9680;52.520;13.332;2022-09-09T04:06:11;100791.47;;;14.76;98.40
19096;BME280;9680;52.520;13.332;2022-09-09T04:08:40;100786.34;;;14.75;98.40
19096;BME280;9680;52.520;13.332;2022-09-09T04:11:09;100785.56;;;14.73;98.65
19096;BME280;9680;52.520;13.332;2022-09-09T04:13:37;100783.88;;;14.72;98.28
19096;BME280;9680;52.520;13.332;2022-09-09T04:16:06;100783.03;;;14.71;98.28
19096;BME280;9680;52.520;13.332;2022-09-09T04:18:34;100783.97;;;14.70;98.35
19096;BME280;9680;52.520;13.332;2022-09-09T04:21:00;100786.72;;;14.67;98.49
19096;BME280;9680;52.520;13.332;2022-09-09T04:23:29;100786.81;;;14.65;98.01
19096;BME280;9680;52.520;13.332;2022-09-09T04:26:28;100784.19;;;14.65;98.22
19096;BME280;9680;52.520;13.332;2022-09-09T04:28:54;100791.13;;;14.66;98.23
19096;BME280;9680;52.520;13.332;2022-09-09T04:31:22;100791.03;;;14.68;97.89
19096;BME280;9680;52.520;13.332;2022-09-09T04:33:50;100791.97;;;14.67;97.83
19096;BME280;9680;52.520;13.332;2022-09-09T04:36:17;100798.91;;;14.68;97.84
19096;BME280;9680;52.520;13.332;2022-09-09T04:38:45;100794.50;;;14.68;97.83
19096;BME280;9680;52.520;13.332;2022-09-09T04:41:12;100803.22;;;14.69;97.66
19096;BME280;9680;52.520;13.332;2022-09-09T04:43:42;100806.69;;;14.69;97.68
19096;BME280;9680;52.520;13.332;2022-09-09T04:46:08;100805.78;;;14.70;97.45
19096;BME280;9680;52.520;13.332;2022-09-09T04:48:34;100804.88;;;14.72;97.39
19096;BME280;9680;52.520;13.332;2022-09-09T04:51:06;100804.75;;;14.73;97.28
19096;BME280;9680;52.520;13.332;2022-09-09T04:53:33;100806.44;;;14.74;97.22
19096;BME280;9680;52.520;13.332;2022-09-09T04:56:08;100818.56;;;14.77;97.52
19096;BME280;9680;52.520;13.332;2022-09-09T04:58:40;100821.03;;;14.80;97.16
19096;BME280;9680;52.520;13.332;2022-09-09T05:01:10;100818.22;;;14.83;97.55
19096;BME280;9680;52.520;13.332;2022-09-09T05:03:38;100817.97;;;14.88;96.97
19096;BME280;9680;52.520;13.332;2022-09-09T05:06:11;100822.13;;;14.92;97.08
19096;BME280;9680;52.520;13.332;2022-09-09T05:08:39;100826.28;;;14.96;96.79
19096;BME280;9680;52.520;13.332;2022-09-09T05:11:22;100824.31;;;14.99;96.40
19096;BME280;9680;52.520;13.332;2022-09-09T05:13:53;100824.84;;;15.06;96.26
19096;BME280;9680;52.520;13.332;2022-09-09T05:16:20;100822.81;;;15.11;96.02
19096;BME280;9680;52.520;13.332;2022-09-09T05:18:46;100825.16;;;15.16;95.55
19096;BME280;9680;52.520;13.332;2022-09-09T05:21:14;100824.03;;;15.20;95.27
19096;BME280;9680;52.520;13.332;2022-09-09T05:23:40;100817.72;;;15.24;94.53
19096;BME280;9680;52.520;13.332;2022-09-09T05:26:11;100815.56;;;15.31;94.59
19096;BME280;9680;52.520;13.332;2022-09-09T05:28:37;100813.53;;;15.36;94.08
19096;BME280;9680;52.520;13.332;2022-09-09T05:31:08;100808.22;;;15.38;93.74
19096;BME280;9680;52.520;13.332;2022-09-09T05:33:35;100816.66;;;15.43;93.48
19096;BME280;9680;52.520;13.332;2022-09-09T05:36:04;100818.06;;;15.49;93.44
19096;BME280;9680;52.520;13.332;2022-09-09T05:38:36;100824.75;;;15.54;93.32
19096;BME280;9680;52.520;13.332;2022-09-09T05:41:18;100822.91;;;15.56;92.74
19096;BME280;9680;52.520;13.332;2022-09-09T05:43:45;100817.56;;;15.58;92.74
19096;BME280;9680;52.520;13.332;2022-09-09T05:46:17;100807.22;;;15.55;92.20
19096;BME280;9680;52.520;13.332;2022-09-09T05:48:46;100809.75;;;15.56;92.17
19096;BME280;9680;52.520;13.332;2022-09-09T05:51:15;100812.41;;;15.56;91.76
19096;BME280;9680;52.520;13.332;2022-09-09T05:53:44;100818.31;;;15.60;91.86
19096;BME280;9680;52.520;13.332;2022-09-09T05:56:23;100829.47;;;15.64;91.40
19096;BME280;9680;52.520;13.332;2022-09-09T05:59:16;100829.22;;;15.68;91.47
19096;BME280;9680;52.520;13.332;2022-09-09T06:01:42;100829.88;;;15.72;91.00
19096;BME280;9680;52.520;13.332;2022-09-09T06:04:15;100832.25;;;15.77;90.67
19096;BME280;9680;52.520;13.332;2022-09-09T06:06:41;100829.34;;;15.81;90.25
19096;BME280;9680;52.520;13.332;2022-09-09T06:09:14;100821.88;;;15.90;90.05
19096;BME280;9680;52.520;13.332;2022-09-09T06:11:42;100829.50;;;15.94;89.26
19096;BME280;9680;52.520;13.332;2022-09-09T06:14:08;100837.00;;;16.00;89.19
19096;BME280;9680;52.520;13.332;2022-09-09T06:16:34;100844.34;;;16.10;88.79
19096;BME280;9680;52.520;13.332;2022-09-09T06:19:01;100841.91;;;16.21;88.50
19096;BME280;9680;52.520;13.332;2022-09-09T06:21:31;100848.16;;;16.35;88.11
19096;BME280;9680;52.520;13.332;2022-09-09T06:24:00;100832.63;;;16.44;87.72
19096;BME280;9680;52.520;13.332;2022-09-09T06:26:30;100833.88;;;16.53;87.20
19096;BME280;9680;52.520;13.332;2022-09-09T06:28:57;100836.97;;;16.60;86.64
19096;BME280;9680;52.520;13.332;2022-09-09T06:31:26;100841.66;;;16.69;86.73
19096;BME280;9680;52.520;13.332;2022-09-09T06:33:53;100831.69;;;16.74;86.29
19096;BME280;9680;52.520;13.332;2022-09-09T06:36:27;100840.31;;;16.77;85.81
19096;BME280;9680;52.520;13.332;2022-09-09T06:38:53;100848.50;;;16.72;85.54
19096;BME280;9680;52.520;13.332;2022-09-09T06:41:21;100855.81;;;16.67;85.44
19096;BME280;9680;52.520;13.332;2022-09-09T06:43:47;100848.31;;;16.60;85.66
19096;BME280;9680;52.520;13.332;2022-09-09T06:46:18;100851.06;;;16.59;85.96
19096;BME280;9680;52.520;13.332;2022-09-09T06:48:45;100852.84;;;16.58;85.96
19096;BME280;9680;52.520;13.332;2022-09-09T06:51:20;100849.19;;;16.61;85.90
19096;BME280;9680;52.520;13.332;2022-09-09T06:53:49;100851.22;;;16.70;86.05
19096;BME280;9680;52.520;13.332;2022-09-09T06:58:52;100850.00;;;17.05;85.26
19096;BME280;9680;52.520;13.332;2022-09-09T07:01:26;100841.84;;;17.23;84.38
19096;BME280;9680;52.520;13.332;2022-09-09T07:03:55;100842.34;;;17.42;83.67
19096;BME280;9680;52.520;13.332;2022-09-09T07:06:29;100846.63;;;17.58;82.63
19096;BME280;9680;52.520;13.332;2022-09-09T07:09:03;100844.53;;;17.76;82.10
19096;BME280;9680;52.520;13.332;2022-09-09T07:11:40;100841.41;;;17.84;80.93
19096;BME280;9680;52.520;13.332;2022-09-09T07:14:11;100845.22;;;17.93;80.46
19096;BME280;9680;52.520;13.332;2022-09-09T07:16:40;100855.44;;;17.97;79.87
19096;BME280;9680;52.520;13.332;2022-09-09T07:19:06;100851.16;;;18.09;79.77
19096;BME280;9680;52.520;13.332;2022-09-09T07:21:32;100845.69;;;18.25;78.72
19096;BME280;9680;52.520;13.332;2022-09-09T07:24:00;100849.47;;;18.34;78.40
19096;BME280;9680;52.520;13.332;2022-09-09T07:26:28;100849.16;;;18.39;78.09
19096;BME280;9680;52.520;13.332;2022-09-09T07:28:55;100847.34;;;18.52;77.83
19096;BME280;9680;52.520;13.332;2022-09-09T07:31:27;100852.28;;;18.70;77.36
19096;BME280;9680;52.520;13.332;2022-09-09T07:34:02;100847.59;;;18.99;76.57
19096;BME280;9680;52.520;13.332;2022-09-09T07:36:33;100852.66;;;19.27;76.04
19096;BME280;9680;52.520;13.332;2022-09-09T07:39:09;100842.81;;;19.53;74.97
19096;BME280;9680;52.520;13.332;2022-09-09T07:41:41;100846.88;;;19.82;73.79
19096;BME280;9680;52.520;13.332;2022-09-09T07:44:10;100851.44;;;20.15;73.12
19096;BME280;9680;52.520;13.332;2022-09-09T07:46:37;100851.91;;;20.43;71.48
19096;BME280;9680;52.520;13.332;2022-09-09T07:49:09;100852.44;;;20.60;70.77
19096;BME280;9680;52.520;13.332;2022-09-09T07:51:38;100860.94;;;20.63;69.46
19096;BME280;9680;52.520;13.332;2022-09-09T07:54:07;100857.47;;;20.63;69.37
19096;BME280;9680;52.520;13.332;2022-09-09T07:56:36;100853.88;;;20.64;68.66
19096;BME280;9680;52.520;13.332;2022-09-09T07:59:03;100855.41;;;20.66;68.92
19096;BME280;9680;52.520;13.332;2022-09-09T08:01:36;100858.06;;;20.66;68.47
19096;BME280;9680;52.520;13.332;2022-09-09T08:04:07;100858.28;;;20.63;68.11
19096;BME280;9680;52.520;13.332;2022-09-09T08:06:39;100859.88;;;20.66;67.98
19096;BME280;9680;52.520;13.332;2022-09-09T08:09:08;100853.38;;;20.70;67.76
19096;BME280;9680;52.520;13.332;2022-09-09T08:11:35;100861.19;;;20.72;67.79
19096;BME280;9680;52.520;13.332;2022-09-09T08:14:03;100865.97;;;20.78;68.22
19096;BME280;9680;52.520;13.332;2022-09-09T08:16:32;100863.97;;;20.82;67.54
19096;BME280;9680;52.520;13.332;2022-09-09T08:18:59;100869.38;;;20.80;67.04
19096;BME280;9680;52.520;13.332;2022-09-09T08:21:29;100869.03;;;20.85;67.19
19096;BME280;9680;52.520;13.332;2022-09-09T08:23:58;100865.03;;;20.79;66.68
19096;BME280;9680;52.520;13.332;2022-09-09T08:26:26;100871.75;;;20.72;67.34
19096;BME280;9680;52.520;13.332;2022-09-09T08:28:55;100873.94;;;20.66;67.46
19096;BME280;9680;52.520;13.332;2022-09-09T08:31:30;100866.47;;;20.60;67.31
19096;BME280;9680;52.520;13.332;2022-09-09T08:33:58;100864.06;;;20.57;67.38
19096;BME280;9680;52.520;13.332;2022-09-09T08:36:28;100866.63;;;20.59;67.59
19096;BME280;9680;52.520;13.332;2022-09-09T08:38:56;100871.19;;;20.68;67.10
19096;BME280;9680;52.520;13.332;2022-09-09T08:50:32;100871.78;;;20.60;66.92
19096;BME280;9680;52.520;13.332;2022-09-09T08:55:51;100873.94;;;20.66;67.02
19096;BME280;9680;52.520;13.332;2022-09-09T08:58:25;100877.91;;;20.72;66.96
19096;BME280;9680;52.520;13.332;2022-09-09T09:12:25;100883.94;;;21.41;64.94
19096;BME280;9680;52.520;13.332;2022-09-09T09:14:54;100872.66;;;21.60;64.53
19096;BME280;9680;52.520;13.332;2022-09-09T09:17:23;100880.09;;;21.78;63.78
19096;BME280;9680;52.520;13.332;2022-09-09T09:19:50;100871.56;;;21.95;63.32
19096;BME280;9680;52.520;13.332;2022-09-09T09:27:52;100873.19;;;22.60;60.81
19096;BME280;9680;52.520;13.332;2022-09-09T09:30:24;100872.88;;;22.94;60.10
19096;BME280;9680;52.520;13.332;2022-09-09T09:35:42;100872.97;;;23.44;58.28
19096;BME280;9680;52.520;13.332;2022-09-09T09:38:23;100860.53;;;23.54;57.71
19096;BME280;9680;52.520;13.332;2022-09-09T09:40:57;100871.72;;;23.58;57.68
19096;BME280;9680;52.520;13.332;2022-09-09T09:43:30;100870.03;;;23.56;57.40
19096;BME280;9680;52.520;13.332;2022-09-09T09:46:00;100866.81;;;23.53;57.42
19096;BME280;9680;52.520;13.332;2022-09-09T09:48:27;100870.16;;;23.45;57.48
19096;BME280;9680;52.520;13.332;2022-09-09T09:51:00;100874.38;;;23.28;57.29
19096;BME280;9680;52.520;13.332;2022-09-09T09:53:30;100873.50;;;23.27;57.34
19096;BME280;9680;52.520;13.332;2022-09-09T09:56:01;100868.47;;;23.24;57.07
19096;BME280;9680;52.520;13.332;2022-09-09T10:06:33;100870.56;;;23.21;57.18
19096;BME280;9680;52.520;13.332;2022-09-09T10:08:59;100873.59;;;23.06;57.05
19096;BME280;9680;52.520;13.332;2022-09-09T10:11:46;100863.16;;;22.64;56.98
19096;BME280;9680;52.520;13.332;2022-09-09T10:14:21;100865.13;;;22.40;57.97
19096;BME280;9680;52.520;13.332;2022-09-09T10:16:54;100868.78;;;22.49;58.59
19096;BME280;9680;52.520;13.332;2022-09-09T10:19:36;100867.94;;;22.80;58.01
19096;BME280;9680;52.520;13.332;2022-09-09T10:30:20;100867.78;;;23.42;56.65
19096;BME280;9680;52.520;13.332;2022-09-09T10:35:58;100873.91;;;23.23;56.78
19096;BME280;9680;52.520;13.332;2022-09-09T10:38:46;100873.78;;;23.24;56.77
19096;BME280;9680;52.520;13.332;2022-09-09T10:41:20;100877.16;;;23.56;56.46
19096;BME280;9680;52.520;13.332;2022-09-09T10:57:37;100875.75;;;23.42;54.23
19096;BME280;9680;52.520;13.332;2022-09-09T11:00:06;100880.38;;;23.40;54.27
19096;BME280;9680;52.520;13.332;2022-09-09T11:02:40;100873.38;;;23.39;54.27
19096;BME280;9680;52.520;13.332;2022-09-09T11:05:22;100874.78;;;23.33;54.33
19096;BME280;9680;52.520;13.332;2022-09-09T11:07:56;100876.88;;;23.30;54.21
19096;BME280;9680;52.520;13.332;2022-09-09T11:10:38;100867.75;;;23.22;54.39
19096;BME280;9680;52.520;13.332;2022-09-09T11:13:13;100869.81;;;23.19;54.93
19096;BME280;9680;52.520;13.332;2022-09-09T11:16:03;100874.66;;;23.25;55.09
19096;BME280;9680;52.520;13.332;2022-09-09T11:18:31;100875.63;;;23.34;55.09
19096;BME280;9680;52.520;13.332;2022-09-09T11:21:03;100870.44;;;23.42;55.27
19096;BME280;9680;52.520;13.332;2022-09-09T11:23:49;100870.31;;;23.63;54.52
19096;BME280;9680;52.520;13.332;2022-09-09T11:26:20;100860.66;;;23.62;54.34
19096;BME280;9680;52.520;13.332;2022-09-09T11:30:03;100860.50;;;23.74;54.70
19096;BME280;9680;52.520;13.332;2022-09-09T11:32:11;100862.56;;;23.90;54.09
19096;BME280;9680;52.520;13.332;2022-09-09T11:34:56;100858.06;;;24.20;52.32
19096;BME280;9680;52.520;13.332;2022-09-09T11:37:51;100865.69;;;24.42;51.68
19096;BME280;9680;52.520;13.332;2022-09-09T11:40:27;100868.97;;;24.26;50.88
19096;BME280;9680;52.520;13.332;2022-09-09T11:45:37;100863.94;;;24.13;51.24
19096;BME280;9680;52.520;13.332;2022-09-09T11:48:04;100861.44;;;24.12;51.27
19096;BME280;9680;52.520;13.332;2022-09-09T11:50:36;100849.34;;;24.27;51.75
19096;BME280;9680;52.520;13.332;2022-09-09T11:53:22;100846.38;;;24.40;51.17
19096;BME280;9680;52.520;13.332;2022-09-09T11:55:59;100842.91;;;24.58;51.14
19096;BME280;9680;52.520;13.332;2022-09-09T11:58:27;100841.16;;;24.77;50.17
19096;BME280;9680;52.520;13.332;2022-09-09T12:00:57;100833.81;;;24.89;49.85
19096;BME280;9680;52.520;13.332;2022-09-09T12:04:27;100837.41;;;24.97;49.53
19096;BME280;9680;52.520;13.332;2022-09-09T12:06:33;100832.00;;;25.07;49.38
19096;BME280;9680;52.520;13.332;2022-09-09T12:11:40;100827.84;;;24.77;49.39
19096;BME280;9680;52.520;13.332;2022-09-09T12:14:23;100827.19;;;24.65;49.69
19096;BME280;9680;52.520;13.332;2022-09-09T12:17:09;100820.53;;;24.79;48.68
19096;BME280;9680;52.520;13.332;2022-09-09T12:19:35;100810.38;;;24.92;49.21
19096;BME280;9680;52.520;13.332;2022-09-09T12:25:02;100811.34;;;25.09;47.94
19096;BME280;9680;52.520;13.332;2022-09-09T12:27:42;100809.25;;;25.13;47.61
19096;BME280;9680;52.520;13.332;2022-09-09T12:30:12;100813.88;;;25.11;47.24
19096;BME280;9680;52.520;13.332;2022-09-09T12:32:39;100814.19;;;25.08;47.53
19096;BME280;9680;52.520;13.332;2022-09-09T12:35:20;100806.56;;;24.95;48.00
19096;BME280;9680;52.520;13.332;2022-09-09T12:37:52;100814.38;;;24.78;47.96
19096;BME280;9680;52.520;13.332;2022-09-09T12:40:30;100809.28;;;24.57;49.14
19096;BME280;9680;52.520;13.332;2022-09-09T12:42:58;100809.91;;;24.41;49.20
19096;BME280;9680;52.520;13.332;2022-09-09T12:45:29;100803.00;;;24.30;49.61
19096;BME280;9680;52.520;13.332;2022-09-09T12:48:03;100798.66;;;24.29;49.73
19096;BME280;9680;52.520;13.332;2022-09-09T12:50:33;100801.03;;;24.32;49.46
19096;BME280;9680;52.520;13.332;2022-09-09T12:53:10;100799.94;;;24.25;49.04
19096;BME280;9680;52.520;13.332;2022-09-09T12:55:38;100802.88;;;24.22;48.74
19096;BME280;9680;52.520;13.332;2022-09-09T12:58:11;100807.66;;;24.18;48.88
19096;BME280;9680;52.520;13.332;2022-09-09T13:01:00;100811.78;;;24.03;48.36
19096;BME280;9680;52.520;13.332;2022-09-09T13:03:27;100817.53;;;23.88;48.06
19096;BME280;9680;52.520;13.332;2022-09-09T13:05:53;100812.34;;;23.87;48.32
19096;BME280;9680;52.520;13.332;2022-09-09T13:08:25;100824.06;;;23.94;47.84
19096;BME280;9680;52.520;13.332;2022-09-09T13:11:04;100824.22;;;24.02;47.91
19096;BME280;9680;52.520;13.332;2022-09-09T13:13:39;100828.53;;;24.13;47.81
19096;BME280;9680;52.520;13.332;2022-09-09T13:16:15;100818.56;;;24.25;47.89
19096;BME280;9680;52.520;13.332;2022-09-09T13:18:42;100822.16;;;24.34;47.63
19096;BME280;9680;52.520;13.332;2022-09-09T13:21:09;100816.53;;;24.37;47.81
19096;BME280;9680;52.520;13.332;2022-09-09T13:23:36;100816.59;;;24.27;47.54
19096;BME280;9680;52.520;13.332;2022-09-09T13:26:03;100812.53;;;24.23;47.87
19096;BME280;9680;52.520;13.332;2022-09-09T13:28:31;100807.78;;;24.17;48.05
19096;BME280;9680;52.520;13.332;2022-09-09T13:31:05;100806.56;;;24.11;48.53
19096;BME280;9680;52.520;13.332;2022-09-09T13:33:34;100803.50;;;24.06;48.91
19096;BME280;9680;52.520;13.332;2022-09-09T13:36:04;100793.97;;;24.03;49.00
19096;BME280;9680;52.520;13.332;2022-09-09T13:38:35;100789.50;;;24.04;49.01
19096;BME280;9680;52.520;13.332;2022-09-09T13:41:09;100797.63;;;24.02;49.16
19096;BME280;9680;52.520;13.332;2022-09-09T13:43:43;100799.44;;;24.02;49.46
19096;BME280;9680;52.520;13.332;2022-09-09T13:48:59;100792.78;;;24.25;49.26
19096;BME280;9680;52.520;13.332;2022-09-09T13:51:32;100782.16;;;24.71;48.74
19096;BME280;9680;52.520;13.332;2022-09-09T13:53:58;100776.56;;;25.11;48.24
19096;BME280;9680;52.520;13.332;2022-09-09T13:56:26;100795.44;;;25.36;47.37
19096;BME280;9680;52.520;13.332;2022-09-09T13:58:51;100791.72;;;25.47;46.88
19096;BME280;9680;52.520;13.332;2022-09-09T14:01:17;100784.81;;;25.44;46.56
19096;BME280;9680;52.520;13.332;2022-09-09T14:03:42;100786.75;;;25.34;46.12
19096;BME280;9680;52.520;13.332;2022-09-09T14:06:10;100793.56;;;25.28;46.49
19096;BME280;9680;52.520;13.332;2022-09-09T14:08:36;100789.91;;;25.29;46.55
19096;BME280;9680;52.520;13.332;2022-09-09T14:11:05;100790.50;;;25.23;45.96
19096;BME280;9680;52.520;13.332;2022-09-09T14:13:32;100795.97;;;25.21;46.22
19096;BME280;9680;52.520;13.332;2022-09-09T14:15:57;100794.31;;;25.20;47.14
19096;BME280;9680;52.520;13.332;2022-09-09T14:18:22;100790.03;;;25.27;46.79
19096;BME280;9680;52.520;13.332;2022-09-09T14:20:50;100784.63;;;25.37;46.76
19096;BME280;9680;52.520;13.332;2022-09-09T14:23:16;100782.53;;;25.23;46.52
19096;BME280;9680;52.520;13.332;2022-09-09T14:25:43;100781.06;;;25.10;46.66
19096;BME280;9680;52.520;13.332;2022-09-09T14:28:12;100786.38;;;25.10;46.48
19096;BME280;9680;52.520;13.332;2022-09-09T14:30:42;100787.84;;;25.05;46.96
19096;BME280;9680;52.520;13.332;2022-09-09T14:33:13;100787.47;;;24.99;46.80
19096;BME280;9680;52.520;13.332;2022-09-09T14:35:39;100786.47;;;25.00;46.03
19096;BME280;9680;52.520;13.332;2022-09-09T14:38:06;100787.59;;;24.98;46.15
19096;BME280;9680;52.520;13.332;2022-09-09T14:40:34;100778.00;;;25.05;45.88
19096;BME280;9680;52.520;13.332;2022-09-09T14:43:00;100779.56;;;25.08;46.02
19096;BME280;9680;52.520;13.332;2022-09-09T14:45:26;100785.09;;;24.96;46.09
19096;BME280;9680;52.520;13.332;2022-09-09T14:47:52;100786.28;;;24.84;46.00
19096;BME280;9680;52.520;13.332;2022-09-09T14:50:19;100789.88;;;24.75;46.19
19096;BME280;9680;52.520;13.332;2022-09-09T14:52:45;100800.00;;;24.61;46.63
19096;BME280;9680;52.520;13.332;2022-09-09T14:55:11;100791.84;;;24.45;46.19
19096;BME280;9680;52.520;13.332;2022-09-09T14:57:37;100793.47;;;24.27;46.91